Time;durP1;ratioP1;P1;durP2;ratioP2;P2;SDS_P1;SDS_P2;PMS_P1;PMS_P2;Temp;Humidity;BMP_temperature;BMP_pressure;BME280_temperature;BME280_humidity;BME280_pressure;Samples;Min_cycle;Max_cycle;Signal;HPM_P1;HPM_P2
2022/06/16 00:00:29;;;;;;;1.80;1.35;;;;;;;14.81;69.28;101549.38;5038536;28;20024;-83
2022/06/16 00:02:55;;;;;;;1.52;1.05;;;;;;;14.82;69.63;101547.63;5038915;28;20028;-83
2022/06/16 00:05:24;;;;;;;1.98;1.23;;;;;;;14.82;69.40;101542.34;5038664;28;20032;-83
2022/06/16 00:07:50;;;;;;;1.23;1.23;;;;;;;14.80;70.14;101549.44;5038721;28;20056;-83
2022/06/16 00:10:16;;;;;;;1.70;1.00;;;;;;;14.79;69.68;101547.69;5038431;28;20021;-83
2022/06/16 00:12:42;;;;;;;2.10;0.98;;;;;;;14.78;69.99;101536.31;5039066;28;20070;-83
2022/06/16 00:15:11;;;;;;;2.58;1.30;;;;;;;14.74;69.63;101529.38;5038210;28;20052;-83
2022/06/16 00:17:37;;;;;;;1.25;1.17;;;;;;;14.73;69.72;101529.41;5038329;28;20134;-83
2022/06/16 00:20:04;;;;;;;3.72;1.40;;;;;;;14.70;68.94;101531.19;5038218;28;20050;-83
2022/06/16 00:22:31;;;;;;;3.10;1.40;;;;;;;14.63;68.29;101526.97;5038607;28;20137;-84
2022/06/16 00:24:57;;;;;;;3.72;1.63;;;;;;;14.60;69.45;101531.38;5038320;28;20456;-83
2022/06/16 00:27:22;;;;;;;2.45;1.30;;;;;;;14.57;69.64;101542.81;5038258;28;20082;-83
2022/06/16 00:29:48;;;;;;;1.88;1.48;;;;;;;14.58;69.85;101530.56;5038297;28;20048;-83
2022/06/16 00:32:13;;;;;;;3.17;1.48;;;;;;;14.58;70.69;101523.53;5038374;28;20103;-83
2022/06/16 00:34:39;;;;;;;3.60;1.40;;;;;;;14.58;70.54;101533.19;5038321;28;20028;-83
2022/06/16 00:37:04;;;;;;;2.45;1.70;;;;;;;14.56;69.75;101532.34;5038297;28;20120;-83
2022/06/16 00:39:30;;;;;;;1.65;1.30;;;;;;;14.57;70.26;101526.19;5038238;28;20029;-83
2022/06/16 00:41:55;;;;;;;2.13;1.25;;;;;;;14.55;70.44;101523.59;5038077;28;20016;-83
2022/06/16 00:44:24;;;;;;;2.15;1.48;;;;;;;14.54;71.08;101521.84;5037974;28;20029;-83
2022/06/16 00:46:49;;;;;;;1.45;1.35;;;;;;;14.55;71.26;101518.34;5054631;28;20410;-83
2022/06/16 00:49:15;;;;;;;2.78;1.13;;;;;;;14.53;70.94;101513.09;5037890;28;20020;-83
2022/06/16 00:51:41;;;;;;;1.10;1.00;;;;;;;14.55;70.73;101518.34;5037839;28;20029;-83
2022/06/16 00:54:34;;;;;;;2.05;1.30;;;;;;;14.53;71.07;101520.09;5038033;28;20027;-83
2022/06/16 00:57:08;;;;;;;1.70;1.00;;;;;;;14.47;70.61;101509.72;5035357;28;20037;-83
2022/06/16 00:59:35;;;;;;;2.65;1.30;;;;;;;14.44;71.40;101525.53;5038058;28;20025;-83
2022/06/16 01:02:03;;;;;;;1.42;1.33;;;;;;;14.43;71.39;101523.81;5037874;28;20086;-83
2022/06/16 01:07:14;;;;;;;1.40;1.30;;;;;;;14.39;71.38;101522.16;5057349;28;20036;-83
2022/06/16 01:09:41;;;;;;;1.38;1.20;;;;;;;14.37;71.50;101509.06;5038028;28;20031;-84
2022/06/16 01:15:39;;;;;;;1.65;1.30;;;;;;;14.30;71.74;101513.56;5076432;28;20501;-83
2022/06/16 01:18:17;;;;;;;1.67;1.33;;;;;;;14.27;71.76;101513.59;5058362;28;20111;-83
2022/06/16 01:20:57;;;;;;;2.08;1.20;;;;;;;14.24;71.67;101518.91;5058388;28;20024;-83
2022/06/16 01:23:52;;;;;;;2.42;1.33;;;;;;;14.23;72.42;101521.56;5058383;28;20024;-83
2022/06/16 01:26:37;;;;;;;1.38;1.20;;;;;;;14.20;71.12;101519.84;5042071;28;20029;-83
2022/06/16 01:29:18;;;;;;;1.88;1.25;;;;;;;14.18;72.56;101521.66;5058248;28;20086;-83
2022/06/16 01:31:49;;;;;;;1.30;1.15;;;;;;;14.20;72.67;101514.59;5076435;28;20034;-83
2022/06/16 01:34:22;;;;;;;1.42;1.33;;;;;;;14.20;72.39;101517.22;5058511;28;20030;-83
2022/06/16 01:37:14;;;;;;;2.17;1.20;;;;;;;14.19;72.54;101504.97;5041436;28;20024;-83
2022/06/16 01:39:48;;;;;;;1.08;1.00;;;;;;;14.19;72.79;101505.88;5049636;28;20033;-83
2022/06/16 01:42:19;;;;;;;1.30;1.05;;;;;;;14.20;72.35;101501.47;5041666;28;20055;-83
2022/06/16 01:44:55;;;;;;;1.45;1.35;;;;;;;14.18;72.46;101490.13;5041190;28;20043;-83
2022/06/16 01:47:22;;;;;;;1.40;1.30;;;;;;;14.17;73.04;101483.13;5041659;28;20028;-83
2022/06/16 01:49:53;;;;;;;1.63;1.30;;;;;;;14.15;73.53;101482.28;5057885;28;20020;-83
2022/06/16 01:52:35;;;;;;;4.00;1.25;;;;;;;14.14;73.24;101478.81;5041185;28;20020;-83
2022/06/16 01:55:06;;;;;;;3.28;1.27;;;;;;;14.13;73.84;101478.84;5041713;28;20064;-83
2022/06/16 01:57:46;;;;;;;1.63;1.52;;;;;;;14.12;73.97;101483.19;5041105;28;20094;-83
2022/06/16 02:00:14;;;;;;;1.38;1.27;;;;;;;14.12;73.77;101479.72;5041134;28;20399;-83
2022/06/16 02:02:41;;;;;;;2.28;1.48;;;;;;;14.09;73.95;101483.28;5041145;28;20523;-83
2022/06/16 02:05:11;;;;;;;1.50;1.40;;;;;;;14.07;74.63;101479.81;5040864;28;20103;-83
2022/06/16 02:07:48;;;;;;;1.55;1.38;;;;;;;14.07;74.89;101479.81;5040882;28;20063;-83
2022/06/16 02:10:19;;;;;;;1.27;1.20;;;;;;;14.06;74.48;101477.19;5040964;28;20052;-83
2022/06/16 02:12:58;;;;;;;1.98;1.63;;;;;;;14.03;74.04;101494.75;5040712;28;20444;-83
2022/06/16 02:15:51;;;;;;;1.52;1.42;;;;;;;14.02;74.31;101492.16;5042399;28;20031;-83
2022/06/16 02:18:20;;;;;;;1.70;1.60;;;;;;;13.99;73.87;101486.97;5057272;28;20025;-83
2022/06/16 02:21:01;;;;;;;3.40;1.63;;;;;;;13.93;74.07;101489.69;5040336;28;20126;-83
2022/06/16 02:23:27;;;;;;;1.50;1.40;;;;;;;13.89;73.45;101482.75;5040490;28;20490;-83
2022/06/16 02:25:56;;;;;;;2.95;1.63;;;;;;;13.90;73.73;101477.47;5040552;28;20028;-83
2022/06/16 02:28:22;;;;;;;1.60;1.50;;;;;;;13.92;74.31;101483.59;5040524;28;20051;-83
2022/06/16 02:30:54;;;;;;;1.92;1.50;;;;;;;13.92;74.16;101480.97;5040511;28;20021;-83
2022/06/16 02:33:32;;;;;;;2.10;1.63;;;;;;;13.92;74.08;101480.97;5057042;28;20074;-83
2022/06/16 02:36:31;;;;;;;3.78;1.52;;;;;;;13.92;74.67;101486.22;5057399;28;20025;-83
2022/06/16 02:39:00;;;;;;;1.48;1.38;;;;;;;13.93;74.85;101487.91;5074750;28;20051;-83
2022/06/16 02:41:44;;;;;;;1.58;1.48;;;;;;;13.92;74.86;101480.97;5056684;28;20021;-83
2022/06/16 02:44:17;;;;;;;1.60;1.50;;;;;;;13.94;74.88;101478.31;5040334;28;20035;-83
2022/06/16 02:46:52;;;;;;;1.50;1.40;;;;;;;13.92;74.54;101486.22;5040338;28;20035;-83
2022/06/16 02:49:36;;;;;;;1.73;1.42;;;;;;;13.91;75.24;101489.72;5040217;28;20115;-83
2022/06/16 02:52:19;;;;;;;1.90;1.75;;;;;;;13.89;74.63;101483.63;5056760;28;20496;-83
2022/06/16 02:54:57;;;;;;;1.95;1.58;;;;;;;13.88;75.46;101488.91;5056982;28;20477;-83
2022/06/16 02:57:30;;;;;;;4.22;1.80;;;;;;;13.86;75.92;101492.44;5040193;28;20031;-83
2022/06/16 03:00:07;;;;;;;1.60;1.48;;;;;;;13.85;75.24;101487.19;5040082;28;20025;-83
2022/06/16 03:02:36;;;;;;;1.50;1.35;;;;;;;13.84;75.28;101493.34;5040544;28;20027;-83
2022/06/16 03:05:04;;;;;;;1.67;1.23;;;;;;;13.83;75.69;101496.88;5039918;28;20029;-83
2022/06/16 03:07:31;;;;;;;3.45;1.77;;;;;;;13.82;76.00;101500.38;5039931;28;20410;-83
2022/06/16 03:09:57;;;;;;;1.58;1.48;;;;;;;13.77;74.37;101502.22;5039841;28;20017;-83
2022/06/16 03:12:22;;;;;;;1.67;1.38;;;;;;;13.75;75.44;101502.25;5039667;28;20024;-83
2022/06/16 03:14:48;;;;;;;2.15;1.60;;;;;;;13.75;75.75;101504.00;5039682;28;20028;-83
2022/06/16 03:17:13;;;;;;;3.55;1.65;;;;;;;13.75;75.76;101509.25;5039514;28;20115;-83
2022/06/16 03:19:39;;;;;;;1.85;1.35;;;;;;;13.75;75.92;101510.13;5040041;28;20508;-83
2022/06/16 03:22:04;;;;;;;1.63;1.50;;;;;;;13.75;75.48;101517.13;5039666;28;20028;-83
2022/06/16 03:24:30;;;;;;;3.95;1.58;;;;;;;13.75;75.86;101519.75;5039627;28;20165;-83
2022/06/16 03:26:56;;;;;;;1.90;1.70;;;;;;;13.75;76.02;101525.00;5039319;28;20393;-83
2022/06/16 03:29:21;;;;;;;1.63;1.52;;;;;;;13.74;76.03;101529.38;5055965;28;20035;-83
2022/06/16 03:31:46;;;;;;;1.88;1.77;;;;;;;13.74;75.51;101526.75;5039528;28;20370;-83
2022/06/16 03:34:12;;;;;;;1.75;1.50;;;;;;;13.71;75.35;101518.94;5038745;28;20035;-83
2022/06/16 03:36:38;;;;;;;2.42;1.77;;;;;;;13.73;75.42;101521.53;5039317;28;20112;-83
2022/06/16 03:39:04;;;;;;;1.50;1.40;;;;;;;13.74;75.86;101523.28;5039075;28;20024;-83
2022/06/16 03:41:30;;;;;;;4.22;1.80;;;;;;;13.73;76.38;101521.53;5039317;28;20025;-83
2022/06/16 03:43:55;;;;;;;1.52;1.40;;;;;;;13.74;76.41;101525.91;5038888;28;20104;-83
2022/06/16 03:46:21;;;;;;;1.95;1.75;;;;;;;13.75;75.99;101519.75;5056481;22;20037;-82
2022/06/16 03:48:46;;;;;;;2.40;1.63;;;;;;;13.74;75.62;101528.53;5036129;28;20029;-80
2022/06/16 03:51:12;;;;;;;1.90;1.80;;;;;;;13.74;75.48;101528.53;5036640;28;20074;-80
2022/06/16 03:53:38;;;;;;;2.45;1.75;;;;;;;13.73;75.62;101532.91;5036711;28;20029;-80
2022/06/16 03:56:04;;;;;;;1.60;1.45;;;;;;;13.72;76.11;101535.56;5036209;28;20044;-80
2022/06/16 03:58:29;;;;;;;3.65;1.90;;;;;;;13.65;75.16;101535.66;5036284;28;20151;-80
2022/06/16 04:00:55;;;;;;;2.58;1.77;;;;;;;13.64;75.52;101544.41;5036757;28;20137;-80
2022/06/16 04:06:04;;;;;;;1.50;1.40;;;;;;;13.64;76.03;101552.28;5053351;28;20040;-80
2022/06/16 04:08:30;;;;;;;2.55;1.73;;;;;;;13.63;75.26;101547.97;5035960;28;20021;-80
2022/06/16 04:10:56;;;;;;;1.60;1.50;;;;;;;13.64;75.43;101544.41;5036206;28;20104;-80
2022/06/16 04:13:22;;;;;;;2.78;1.60;;;;;;;13.63;75.30;101558.47;5036612;28;20474;-80
2022/06/16 04:15:47;;;;;;;1.90;1.73;;;;;;;13.62;75.18;101569.84;5036013;28;20154;-80
2022/06/16 04:18:13;;;;;;;2.03;1.90;;;;;;;13.65;76.15;101569.78;5035461;28;20029;-80
2022/06/16 04:20:39;;;;;;;2.53;1.98;;;;;;;13.65;76.14;101563.69;5035575;28;20032;-80
2022/06/16 04:23:10;;;;;;;2.72;1.67;;;;;;;13.65;75.82;101572.41;5035800;28;20027;-80
2022/06/16 04:25:35;;;;;;;2.17;2.00;;;;;;;13.65;75.54;101566.31;5036761;28;20075;-80
2022/06/16 04:28:03;;;;;;;3.45;1.60;;;;;;;13.68;76.20;101571.50;5035094;28;20597;-80
2022/06/16 04:30:29;;;;;;;3.10;1.90;;;;;;;13.72;75.71;101574.97;5052406;28;20020;-80
2022/06/16 04:32:58;;;;;;;2.38;1.85;;;;;;;13.75;75.86;101577.53;5036046;28;20028;-80
2022/06/16 04:35:25;;;;;;;3.58;2.35;;;;;;;13.79;76.36;101587.94;5035823;28;20444;-80
2022/06/16 04:37:50;;;;;;;2.05;1.85;;;;;;;13.83;76.19;101575.66;5035510;28;20016;-80
2022/06/16 04:40:16;;;;;;;3.63;1.90;;;;;;;13.84;76.06;101583.50;5052539;28;20493;-80
2022/06/16 04:42:41;;;;;;;2.20;2.00;;;;;;;13.85;75.70;101580.00;5035752;28;20029;-80
2022/06/16 04:45:10;;;;;;;2.75;1.80;;;;;;;13.88;76.01;101578.19;5035725;28;20020;-80
2022/06/16 04:47:35;;;;;;;1.80;1.70;;;;;;;13.91;75.80;101578.16;5035662;28;20021;-80
2022/06/16 04:50:01;;;;;;;2.15;1.92;;;;;;;13.89;75.56;101580.78;5034931;28;20031;-80
2022/06/16 04:52:26;;;;;;;6.03;2.50;;;;;;;13.91;75.11;101584.28;5035264;28;20025;-80
2022/06/16 04:54:51;;;;;;;4.10;2.65;;;;;;;13.93;75.27;101582.47;5035686;28;20524;-80
2022/06/16 04:57:17;;;;;;;2.50;2.30;;;;;;;13.95;75.28;101585.09;5035457;28;20036;-80
2022/06/16 04:59:43;;;;;;;2.40;2.20;;;;;;;13.97;75.75;101588.56;5035500;28;20162;-79
2022/06/16 05:02:09;;;;;;;1.75;1.65;;;;;;;14.00;75.12;101596.38;5038561;28;20082;-80
2022/06/16 05:04:35;;;;;;;1.92;1.83;;;;;;;14.02;75.84;101592.84;5039250;28;20056;-80
2022/06/16 05:07:01;;;;;;;1.70;1.52;;;;;;;14.05;75.86;101594.56;5039603;28;20036;-79
2022/06/16 05:09:28;;;;;;;3.03;1.98;;;;;;;14.10;75.79;101605.84;5040459;28;20017;-79
2022/06/16 05:11:54;;;;;;;1.95;1.85;;;;;;;14.11;75.87;101607.59;5040101;28;20492;-79
2022/06/16 05:14:20;;;;;;;2.00;1.90;;;;;;;14.11;75.17;101606.72;5037854;28;20092;-80
2022/06/16 05:16:46;;;;;;;2.85;2.10;;;;;;;14.08;74.27;101607.63;5037436;28;20032;-79
2022/06/16 05:19:11;;;;;;;2.50;2.30;;;;;;;14.08;75.03;101604.16;5036303;28;20025;-79
2022/06/16 05:21:37;;;;;;;2.97;2.28;;;;;;;14.05;74.92;101606.81;5037793;28;20661;-79
2022/06/16 05:24:03;;;;;;;1.95;1.80;;;;;;;14.06;74.71;101616.41;5038317;28;20024;-80
2022/06/16 05:26:29;;;;;;;3.40;2.25;;;;;;;14.05;74.79;101615.56;5038740;28;20021;-80
2022/06/16 05:28:54;;;;;;;5.88;2.25;;;;;;;14.03;74.94;101620.84;5038768;28;20059;-79
2022/06/16 05:31:19;;;;;;;2.70;2.50;;;;;;;14.02;74.69;101624.34;5038813;28;20025;-79
2022/06/16 05:33:45;;;;;;;2.63;2.42;;;;;;;13.96;74.43;101629.72;5039551;28;20029;-79
2022/06/16 05:36:12;;;;;;;5.22;2.38;;;;;;;13.91;74.83;101635.94;5038788;28;20469;-79
2022/06/16 05:38:37;;;;;;;2.65;2.47;;;;;;;13.88;75.19;101630.72;5038229;28;20055;-79
2022/06/16 05:41:13;;;;;;;2.60;2.38;;;;;;;13.83;74.87;101638.69;5039259;28;20026;-79
2022/06/16 05:43:39;;;;;;;3.90;2.70;;;;;;;13.82;75.66;101642.19;5039368;28;20474;-79
2022/06/16 05:46:06;;;;;;;3.22;2.63;;;;;;;13.80;75.60;101638.72;5038524;28;20029;-79
2022/06/16 05:48:33;;;;;;;2.65;2.30;;;;;;;13.81;76.04;101632.56;5036280;28;20021;-79
2022/06/16 05:51:05;;;;;;;3.15;2.83;;;;;;;13.82;75.60;101634.31;5038622;28;20048;-79
2022/06/16 05:53:31;;;;;;;4.80;3.30;;;;;;;13.84;75.78;101635.16;5038315;28;20121;-79
2022/06/16 05:55:56;;;;;;;2.92;2.60;;;;;;;13.84;75.93;101629.91;5054665;28;20040;-79
2022/06/16 05:58:22;;;;;;;6.03;2.83;;;;;;;13.86;76.23;101628.13;5041470;28;20048;-79
2022/06/16 06:00:47;;;;;;;3.05;2.83;;;;;;;13.89;76.04;101627.19;5041342;28;20025;-79
2022/06/16 06:03:12;;;;;;;2.90;2.63;;;;;;;13.92;76.25;101632.41;5041040;28;20453;-79
2022/06/16 06:05:38;;;;;;;9.52;3.03;;;;;;;13.94;75.61;101625.38;5059477;28;20013;-79
2022/06/16 06:19:25;;;;;;;5.55;3.25;;;;;;;13.95;75.81;101637.63;5021423;28;20111;-79
2022/06/16 06:21:58;;;;;;;4.13;3.72;;;;;;;13.92;75.57;101638.53;5055338;28;20535;-79
2022/06/16 06:24:25;;;;;;;5.22;3.40;;;;;;;13.91;76.33;101646.44;5042228;28;20040;-78
2022/06/16 06:26:52;;;;;;;3.80;3.47;;;;;;;13.89;75.83;101643.81;5037578;28;20036;-79
2022/06/16 06:29:17;;;;;;;6.25;3.13;;;;;;;13.88;76.41;101650.00;5038389;28;20024;-79
2022/06/16 06:31:43;;;;;;;7.80;3.42;;;;;;;13.89;76.70;101649.06;5037937;28;20021;-79
2022/06/16 06:34:08;;;;;;;6.18;3.42;;;;;;;13.91;76.87;101655.19;5037881;28;20556;-79
2022/06/16 06:36:33;;;;;;;3.67;3.10;;;;;;;13.95;76.64;101656.00;5038322;28;20024;-79
2022/06/16 06:38:59;;;;;;;3.22;3.00;;;;;;;13.97;77.17;101662.09;5055030;28;20029;-79
2022/06/16 06:41:24;;;;;;;3.38;2.92;;;;;;;14.00;77.15;101662.94;5054798;28;20573;-79
2022/06/16 06:43:49;;;;;;;3.17;2.85;;;;;;;14.05;77.75;101665.47;5043051;28;20029;-79
2022/06/16 06:46:15;;;;;;;3.95;3.08;;;;;;;14.11;77.60;101656.63;5042337;28;20024;-79
2022/06/16 06:48:40;;;;;;;4.00;3.03;;;;;;;14.13;77.01;101657.50;5042186;28;20036;-79
2022/06/16 06:51:06;;;;;;;3.05;2.83;;;;;;;14.18;77.62;101660.91;5042152;28;20587;-79
2022/06/16 06:53:32;;;;;;;2.83;2.65;;;;;;;14.25;77.71;101661.66;5043003;28;20025;-79
2022/06/16 06:55:57;;;;;;;4.93;3.35;;;;;;;14.32;77.21;101665.94;5058857;28;20387;-79
2022/06/16 06:58:23;;;;;;;3.30;2.90;;;;;;;14.35;76.88;101665.88;5041700;28;20040;-79
2022/06/16 07:00:53;;;;;;;4.40;2.78;;;;;;;14.38;76.82;101663.19;5041732;28;20086;-79
2022/06/16 07:03:19;;;;;;;6.00;3.30;;;;;;;14.46;76.90;101670.97;5042161;28;20502;-79
2022/06/16 07:05:44;;;;;;;3.85;3.38;;;;;;;14.48;75.89;101669.16;5061568;28;20081;-79
2022/06/16 07:08:10;;;;;;;4.18;3.33;;;;;;;14.54;75.73;101669.94;5076228;28;20020;-79
2022/06/16 07:10:36;;;;;;;4.35;2.65;;;;;;;14.60;75.87;101675.97;5078910;28;20021;-79
2022/06/16 07:13:01;;;;;;;2.85;2.45;;;;;;;14.67;74.62;101673.25;5078882;28;20028;-79
2022/06/16 07:15:26;;;;;;;3.03;2.50;;;;;;;14.74;75.31;101675.75;5060458;28;20481;-79
2022/06/16 07:17:52;;;;;;;4.97;2.70;;;;;;;14.81;75.69;101678.25;5077942;28;20032;-79
2022/06/16 07:20:18;;;;;;;4.07;2.35;;;;;;;14.91;74.74;101688.63;5061102;28;20497;-79
2022/06/16 07:22:45;;;;;;;5.50;2.25;;;;;;;15.01;73.17;101688.41;5063576;28;20112;-79
2022/06/16 07:25:10;;;;;;;2.38;2.20;;;;;;;15.07;73.88;101682.16;5040598;28;20047;-79
2022/06/16 07:27:36;;;;;;;6.60;2.20;;;;;;;15.14;73.39;101678.50;5040915;28;20025;-79
2022/06/16 07:30:04;;;;;;;2.63;1.83;;;;;;;15.20;72.84;101681.03;5057623;28;20028;-79
2022/06/16 07:32:29;;;;;;;2.75;2.00;;;;;;;15.27;72.17;101687.06;5041247;28;20025;-79
2022/06/16 07:34:55;;;;;;;3.35;2.17;;;;;;;15.34;71.23;101687.78;5041013;28;20047;-79
2022/06/16 07:37:20;;;;;;;2.65;1.67;;;;;;;15.40;70.36;101681.53;5040267;28;20468;-79
2022/06/16 07:39:46;;;;;;;4.28;2.05;;;;;;;15.47;70.72;101688.41;5040764;28;20029;-79
2022/06/16 07:42:11;;;;;;;1.60;1.50;;;;;;;15.56;70.44;101693.47;5040813;28;20032;-79
2022/06/16 07:44:37;;;;;;;1.52;1.40;;;;;;;15.63;69.23;101692.44;5041151;28;20021;-79
2022/06/16 07:47:04;;;;;;;3.63;1.40;;;;;;;15.70;67.63;101696.66;5041233;28;20036;-79
2022/06/16 07:49:29;;;;;;;2.90;1.58;;;;;;;15.77;67.24;101696.53;5041323;28;20393;-79
2022/06/16 07:51:57;;;;;;;1.50;1.20;;;;;;;15.84;67.95;101695.53;5023812;28;20039;-79
2022/06/16 07:54:23;;;;;;;2.20;1.15;;;;;;;15.86;65.94;101697.22;5041050;28;20025;-80
2022/06/16 07:56:49;;;;;;;1.83;1.13;;;;;;;15.88;65.14;101710.38;5041513;28;20025;-79
2022/06/16 07:59:14;;;;;;;2.25;1.55;;;;;;;15.88;66.24;101706.00;5040699;28;20031;-79
2022/06/16 08:01:40;;;;;;;2.95;1.20;;;;;;;15.92;67.25;101703.28;5057571;28;20025;-79
2022/06/16 08:04:05;;;;;;;1.98;1.00;;;;;;;15.91;65.99;101712.97;5040809;28;20025;-79
2022/06/16 08:06:33;;;;;;;1.60;1.10;;;;;;;15.91;65.68;101702.41;5057278;28;20270;-79
2022/06/16 08:08:59;;;;;;;3.13;0.93;;;;;;;15.90;66.02;101708.59;5040171;28;20025;-79
2022/06/16 08:14:08;;;;;;;1.20;1.10;;;;;;;15.86;66.49;101702.50;5057084;28;20442;-79
2022/06/16 08:16:34;;;;;;;1.77;1.67;;;;;;;15.87;66.06;101700.75;5039475;28;20021;-79
2022/06/16 08:19:00;;;;;;;2.05;0.95;;;;;;;15.86;66.09;101701.66;5039104;28;20032;-79
2022/06/16 08:21:26;;;;;;;2.08;1.00;;;;;;;15.87;65.35;101713.94;5040333;28;20025;-79
2022/06/16 08:23:52;;;;;;;3.25;1.17;;;;;;;15.87;66.26;101716.56;5040790;28;20047;-79
2022/06/16 08:26:17;;;;;;;2.58;1.40;;;;;;;15.87;65.83;101700.75;5040093;28;20331;-79
2022/06/16 08:28:43;;;;;;;4.30;1.48;;;;;;;15.89;65.59;101701.56;5040472;28;20025;-79
2022/06/16 08:31:09;;;;;;;1.38;1.27;;;;;;;15.96;63.94;101704.94;5039811;28;20021;-79
2022/06/16 08:33:34;;;;;;;3.58;1.20;;;;;;;16.03;63.84;101706.53;5038357;28;20080;-79
2022/06/16 08:36:00;;;;;;;1.13;1.00;;;;;;;16.08;65.00;101706.44;5038519;28;20040;-79
2022/06/16 08:38:25;;;;;;;2.85;1.00;;;;;;;16.11;64.68;101696.66;5039714;28;20028;-79
2022/06/16 08:41:11;;;;;;;2.53;0.85;;;;;;;16.16;63.23;101699.22;5049437;28;20117;-79
2022/06/16 08:43:44;;;;;;;4.03;1.30;;;;;;;16.18;61.67;101708.81;5078950;28;20028;-79
2022/06/16 08:46:14;;;;;;;4.90;1.02;;;;;;;16.23;61.02;101706.06;5059141;28;20035;-79
2022/06/16 08:48:45;;;;;;;4.82;1.10;;;;;;;16.27;60.97;101707.72;5068744;28;20437;-79
2022/06/16 08:51:29;;;;;;;1.55;1.13;;;;;;;16.34;61.92;101701.38;5056811;28;20029;-79
2022/06/16 08:54:01;;;;;;;4.73;1.10;;;;;;;16.41;63.12;101693.34;5039164;28;20036;-79
2022/06/16 08:57:03;;;;;;;1.73;1.25;;;;;;;16.48;62.76;101703.69;5055960;28;20033;-79
2022/06/16 08:59:37;;;;;;;1.63;0.93;;;;;;;16.48;60.86;101701.03;5056174;28;20096;-79
2022/06/16 09:02:47;;;;;;;1.13;0.90;;;;;;;16.44;59.80;101699.38;5055631;28;20025;-80
2022/06/16 09:05:18;;;;;;;2.13;1.10;;;;;;;16.37;60.68;101698.69;5043532;28;20032;-79
2022/06/16 09:08:06;;;;;;;1.15;0.88;;;;;;;16.37;61.45;101693.44;5056631;28;20021;-79
2022/06/16 09:11:22;;;;;;;1.63;0.70;;;;;;;16.39;62.83;101696.88;5056070;28;20432;-79
2022/06/16 09:14:09;;;;;;;2.03;0.90;;;;;;;16.37;59.06;101695.19;5002402;28;20118;-79
2022/06/16 09:16:53;;;;;;;0.57;0.43;;;;;;;16.37;56.12;101693.44;5057150;28;20035;-79
2022/06/16 09:19:35;;;;;;;2.00;0.73;;;;;;;16.38;55.97;101700.41;5040409;28;20040;-80
2022/06/16 09:22:19;;;;;;;0.98;0.50;;;;;;;16.42;55.31;101703.00;5056917;28;20035;-79
2022/06/16 09:25:01;;;;;;;0.88;0.40;;;;;;;16.44;56.33;101709.94;5056446;28;20071;-79
2022/06/16 09:27:42;;;;;;;1.70;0.40;;;;;;;16.48;53.95;101710.75;5058917;28;20032;-79
2022/06/16 09:30:11;;;;;;;3.92;0.40;;;;;;;16.51;53.89;101713.28;5056488;28;20088;-79
2022/06/16 09:32:52;;;;;;;1.00;0.40;;;;;;;16.54;53.89;101713.25;5042862;28;20119;-79
2022/06/16 09:35:36;;;;;;;1.50;0.40;;;;;;;16.55;53.65;101717.59;5044106;28;20406;-79
2022/06/16 09:38:10;;;;;;;1.00;0.57;;;;;;;16.59;51.88;101718.38;5043526;28;20504;-79
2022/06/16 09:40:49;;;;;;;3.40;0.50;;;;;;;16.62;51.73;101715.66;5043826;28;20487;-80
2022/06/16 09:43:42;;;;;;;0.60;0.40;;;;;;;16.65;52.37;101719.09;5043470;28;20028;-79
2022/06/16 09:46:22;;;;;;;0.68;0.50;;;;;;;16.68;53.96;101719.00;5061887;23;20033;-81
2022/06/16 09:49:00;;;;;;;2.05;0.60;;;;;;;16.72;55.70;101709.25;5061108;28;20085;-81
2022/06/16 09:51:40;;;;;;;1.02;0.52;;;;;;;16.77;54.89;101704.72;5060853;28;20023;-81
2022/06/16 09:54:18;;;;;;;0.60;0.38;;;;;;;16.82;54.40;101700.19;5061100;28;20059;-81
2022/06/16 09:56:53;;;;;;;2.30;0.68;;;;;;;16.88;54.51;101693.91;5077535;28;20023;-80
2022/06/16 09:59:44;;;;;;;3.08;0.70;;;;;;;16.93;53.54;101702.56;5060795;28;20034;-82
2022/06/16 10:02:26;;;;;;;1.48;0.75;;;;;;;16.94;52.63;101709.59;5060704;28;20051;-80
2022/06/16 10:04:53;;;;;;;0.98;0.90;;;;;;;16.96;52.53;101713.06;5060916;28;20702;-81
2022/06/16 10:07:29;;;;;;;2.15;0.70;;;;;;;16.99;54.65;101720.88;5077332;28;20027;-80
2022/06/16 10:10:09;;;;;;;1.95;0.63;;;;;;;17.01;54.05;101711.13;5060631;28;20062;-81
2022/06/16 10:13:19;;;;;;;2.35;0.70;;;;;;;17.06;52.34;101716.31;5060667;28;20248;-81
2022/06/16 10:16:15;;;;;;;3.25;0.88;;;;;;;17.13;53.41;101719.66;5016164;28;20033;-81
2022/06/16 10:18:41;;;;;;;1.80;0.77;;;;;;;17.16;54.08;101714.28;5027523;28;20029;-81
2022/06/16 10:21:10;;;;;;;0.95;0.60;;;;;;;17.19;54.43;101719.47;5047083;28;20396;-81
2022/06/16 10:23:44;;;;;;;2.85;1.73;;;;;;;17.23;56.30;101721.13;5060405;28;20115;-81
2022/06/16 10:26:10;;;;;;;2.55;0.70;;;;;;;17.29;52.36;101725.34;5060539;28;20054;-81
2022/06/16 10:28:36;;;;;;;1.98;0.57;;;;;;;17.30;52.54;101722.69;5060380;28;20031;-81
2022/06/16 10:31:04;;;;;;;1.63;0.70;;;;;;;17.33;52.88;101727.88;5076854;28;20058;-81
2022/06/16 10:33:35;;;;;;;0.82;0.80;;;;;;;17.42;53.36;101731.19;5060222;28;20031;-81
2022/06/16 10:36:27;;;;;;;1.73;0.70;;;;;;;17.56;52.52;101740.44;5060551;28;20021;-81
2022/06/16 10:39:21;;;;;;;1.65;0.68;;;;;;;17.72;54.74;101743.50;5056038;28;20039;-81
2022/06/16 10:41:59;;;;;;;2.05;0.70;;;;;;;17.86;53.75;101747.47;5060135;28;20056;-81
2022/06/16 10:44:27;;;;;;;0.60;0.55;;;;;;;17.88;52.70;101750.97;5059898;28;20081;-80
2022/06/16 10:47:06;;;;;;;1.55;0.52;;;;;;;17.84;52.99;101749.31;5059859;28;20156;-80
2022/06/16 10:49:34;;;;;;;1.13;0.70;;;;;;;17.81;53.97;101757.34;5059938;28;20077;-81
2022/06/16 10:52:30;;;;;;;1.70;0.70;;;;;;;17.83;54.98;101752.88;5059676;28;20024;-80
2022/06/16 10:55:11;;;;;;;1.60;0.60;;;;;;;17.88;53.19;101746.53;5043629;28;20485;-81
2022/06/16 10:57:48;;;;;;;0.55;0.40;;;;;;;17.95;53.03;101757.81;5076240;28;20027;-80
2022/06/16 11:00:22;;;;;;;2.88;0.60;;;;;;;18.01;52.21;101747.06;5076329;28;20096;-81
2022/06/16 11:03:10;;;;;;;1.67;0.55;;;;;;;18.13;51.82;101751.09;5059810;28;20016;-81
2022/06/16 11:05:57;;;;;;;0.93;0.75;;;;;;;18.27;52.02;101749.81;5076294;28;20393;-81
2022/06/16 11:08:25;;;;;;;1.42;0.65;;;;;;;18.32;51.89;101745.25;5059502;28;20036;-81
2022/06/16 11:10:57;;;;;;;1.35;0.70;;;;;;;18.37;53.30;101749.47;5059349;28;20061;-80
2022/06/16 11:13:33;;;;;;;2.72;0.40;;;;;;;18.44;53.36;101744.84;5076067;28;20027;-80
2022/06/16 11:15:59;;;;;;;0.82;0.60;;;;;;;18.51;52.82;101741.06;5059362;28;20149;-81
2022/06/16 11:18:27;;;;;;;3.53;1.00;;;;;;;18.58;50.95;101752.31;5059327;28;20024;-80
2022/06/16 11:20:56;;;;;;;1.58;0.60;;;;;;;18.62;51.96;101740.72;5059219;28;20405;-81
2022/06/16 11:23:21;;;;;;;2.15;0.63;;;;;;;18.67;49.42;101757.31;5059247;28;20020;-81
2022/06/16 11:25:54;;;;;;;0.82;0.60;;;;;;;18.79;51.83;101749.88;5075890;28;20027;-82
2022/06/16 11:28:21;;;;;;;1.23;0.70;;;;;;;18.94;49.38;101752.03;5059214;28;20077;-80
2022/06/16 11:30:47;;;;;;;0.75;0.75;;;;;;;19.07;48.09;101745.41;5058986;28;20028;-80
2022/06/16 11:36:49;;;;;;;1.17;0.70;;;;;;;19.35;48.61;101739.09;5078627;28;20112;-81
2022/06/16 11:39:21;;;;;;;1.38;0.80;;;;;;;19.30;48.37;101746.34;5021290;28;20041;-80
2022/06/16 11:41:50;;;;;;;6.97;0.85;;;;;;;19.26;48.59;101739.44;5058796;28;20024;-80
2022/06/16 11:44:34;;;;;;;1.38;0.60;;;;;;;19.28;50.50;101742.91;5058844;28;20020;-81
2022/06/16 11:47:15;;;;;;;1.00;0.40;;;;;;;19.21;49.78;101750.19;5075453;28;20053;-80
2022/06/16 11:49:59;;;;;;;1.08;0.80;;;;;;;19.21;49.00;101758.16;5075437;28;20020;-80
2022/06/16 11:52:51;;;;;;;0.77;0.70;;;;;;;19.34;50.14;101750.59;5075476;28;20024;-81
2022/06/16 11:56:08;;;;;;;1.63;0.70;;;;;;;19.52;49.24;101758.81;5065764;28;20032;-81
2022/06/16 11:58:39;;;;;;;1.48;0.98;;;;;;;19.53;49.51;101756.09;5042002;28;20036;-81
2022/06/16 12:01:10;;;;;;;1.80;0.70;;;;;;;19.64;49.68;101753.06;5093536;28;20385;-80
2022/06/16 12:03:49;;;;;;;2.10;0.88;;;;;;;19.81;48.21;101752.47;5058504;28;20020;-81
2022/06/16 12:06:36;;;;;;;0.82;0.60;;;;;;;19.88;47.40;101748.63;5058627;28;20093;-81
2022/06/16 12:09:10;;;;;;;0.75;0.70;;;;;;;19.89;48.08;101753.03;5074990;28;20141;-80